createdAt,value
2017-05-11T00:00:35.641Z,0
2017-05-11T00:01:35.653Z,0
2017-05-11T00:02:35.674Z,0
2017-05-11T00:03:50.307Z,0
2017-05-11T00:04:35.713Z,0
2017-05-11T00:06:35.750Z,0
2017-05-11T00:07:50.384Z,0
2017-05-11T00:08:35.819Z,0
2017-05-11T00:09:35.809Z,0
2017-05-11T00:10:35.825Z,0
2017-05-11T00:11:35.844Z,0
2017-05-11T00:12:35.867Z,0
2017-05-11T00:13:35.882Z,0
2017-05-11T00:14:35.901Z,0
2017-05-11T00:15:35.921Z,0
2017-05-11T00:16:35.936Z,0
2017-05-11T00:17:35.958Z,0
2017-05-11T00:18:35.975Z,0
2017-05-11T00:19:35.994Z,0
2017-05-11T00:20:36.010Z,0
2017-05-11T00:21:50.647Z,0
2017-05-11T00:22:50.664Z,0
2017-05-11T00:26:50.741Z,0
2017-05-11T00:27:36.148Z,0
2017-05-11T00:28:36.163Z,0
2017-05-11T00:29:36.189Z,0
2017-05-11T00:30:36.202Z,0
2017-05-11T00:31:50.835Z,0
2017-05-11T00:32:36.235Z,0
2017-05-11T00:33:36.253Z,0
2017-05-11T00:34:36.278Z,0
2017-05-11T00:35:36.290Z,0
2017-05-11T00:36:36.312Z,0
2017-05-11T00:37:50.942Z,0
2017-05-11T00:38:36.348Z,0
2017-05-11T00:39:36.366Z,0
2017-05-11T00:40:36.382Z,0
2017-05-11T00:41:36.399Z,0
2017-05-11T00:42:51.037Z,0
2017-05-11T00:43:36.443Z,0
2017-05-11T00:44:36.458Z,0
2017-05-11T00:45:36.481Z,0
2017-05-11T00:46:36.508Z,0
2017-05-11T00:47:36.515Z,0
2017-05-11T00:48:36.536Z,0
2017-05-11T00:49:51.167Z,0
2017-05-11T00:50:51.184Z,0
2017-05-11T00:51:36.585Z,0
2017-05-11T00:52:36.607Z,0
2017-05-11T00:53:36.627Z,0
2017-05-11T00:54:36.650Z,0
2017-05-11T00:55:36.660Z,0
2017-05-11T00:56:36.680Z,0
2017-05-11T00:58:51.332Z,0
2017-05-11T00:59:36.734Z,0
2017-05-11T01:00:36.755Z,0
2017-05-11T01:01:36.774Z,0
2017-05-11T01:02:36.805Z,0
2017-05-11T01:03:36.810Z,0
2017-05-11T01:04:36.831Z,0
2017-05-11T01:05:36.846Z,0
2017-05-11T01:06:36.862Z,0
2017-05-11T01:08:51.520Z,0
2017-05-11T01:09:36.918Z,0
2017-05-11T01:11:36.955Z,0
2017-05-11T01:12:36.972Z,0
2017-05-11T01:13:36.988Z,0
2017-05-11T01:14:51.626Z,0
2017-05-11T01:15:37.034Z,0
2017-05-11T01:16:37.044Z,0
2017-05-11T01:17:37.061Z,0
2017-05-11T01:18:37.084Z,0
2017-05-11T01:19:37.101Z,0
2017-05-11T01:20:37.119Z,0
2017-05-11T01:21:37.138Z,0
2017-05-11T01:22:37.161Z,0
2017-05-11T01:23:37.177Z,0
2017-05-11T01:24:51.805Z,0
2017-05-11T01:25:37.211Z,0
2017-05-11T01:26:37.228Z,0
2017-05-11T01:27:37.246Z,0
2017-05-11T01:28:37.270Z,0
2017-05-11T01:29:51.897Z,0
2017-05-11T01:30:37.308Z,0
2017-05-11T01:31:37.318Z,0
2017-05-11T01:32:37.343Z,0
2017-05-11T01:33:37.351Z,0
2017-05-11T01:34:37.372Z,0
2017-05-11T01:35:37.389Z,0
2017-05-11T01:36:37.406Z,0
2017-05-11T01:37:37.126Z,0
2017-05-11T01:38:52.060Z,0
2017-05-11T01:39:37.465Z,0
2017-05-11T01:40:37.480Z,0
2017-05-11T01:41:52.115Z,0
2017-05-11T01:42:37.520Z,0
2017-05-11T01:43:37.541Z,0
2017-05-11T01:44:37.555Z,0
2017-05-11T01:45:37.573Z,0
2017-05-11T01:46:37.601Z,0
2017-05-11T01:47:37.905Z,0
2017-05-11T01:48:37.629Z,0
2017-05-11T01:49:37.643Z,0
2017-05-11T01:50:37.663Z,0
2017-05-11T01:51:37.680Z,0
2017-05-11T01:52:52.314Z,0
2017-05-11T01:53:52.331Z,0
2017-05-11T01:54:52.350Z,0
2017-05-11T01:55:37.752Z,0
2017-05-11T01:56:37.767Z,0
2017-05-11T01:58:37.805Z,0
2017-05-11T01:59:37.822Z,0
2017-05-11T02:01:52.472Z,0
2017-05-11T02:02:37.875Z,0
2017-05-11T02:03:37.901Z,0
2017-05-11T02:04:37.914Z,0
2017-05-11T02:05:37.929Z,0
2017-05-11T02:06:37.946Z,0
2017-05-11T02:07:37.972Z,0
2017-05-11T02:08:52.600Z,0
2017-05-11T02:09:38.001Z,0
2017-05-11T02:10:38.027Z,0
2017-05-11T02:11:38.045Z,0
2017-05-11T02:12:38.054Z,0
2017-05-11T02:13:38.072Z,0
2017-05-11T02:16:38.123Z,0
2017-05-11T02:17:52.760Z,0
2017-05-11T02:18:38.165Z,0
2017-05-11T02:19:38.200Z,0
2017-05-11T02:20:38.194Z,0
2017-05-11T02:21:38.215Z,0
2017-05-11T02:22:38.231Z,0
2017-05-11T02:23:38.249Z,0
2017-05-11T02:24:38.570Z,0
2017-05-11T02:25:38.325Z,0
2017-05-11T02:27:38.319Z,0
2017-05-11T02:28:38.042Z,0
2017-05-11T02:29:38.354Z,0
2017-05-11T02:30:38.415Z,0
2017-05-11T02:31:38.393Z,0
2017-05-11T02:32:38.412Z,0
2017-05-11T02:33:53.043Z,4
2017-05-11T02:34:38.142Z,4
2017-05-11T02:35:38.159Z,4
2017-05-11T02:36:38.481Z,0
2017-05-11T02:37:38.500Z,0
2017-05-11T02:38:38.518Z,4
2017-05-11T02:39:38.531Z,4
2017-05-11T02:40:38.549Z,0
2017-05-11T02:41:38.566Z,4
2017-05-11T02:42:38.591Z,4
2017-05-11T02:43:38.296Z,4
2017-05-11T02:46:38.656Z,8
2017-05-11T02:47:38.674Z,8
2017-05-11T02:49:53.323Z,12
2017-05-11T02:50:38.727Z,12
2017-05-11T02:51:38.759Z,16
2017-05-11T02:52:38.767Z,16
2017-05-11T02:53:38.801Z,20
2017-05-11T02:54:38.797Z,20
2017-05-11T02:55:38.814Z,24
2017-05-11T02:56:53.448Z,28
2017-05-11T02:57:38.854Z,28
2017-05-11T02:58:53.480Z,36
2017-05-11T02:59:53.501Z,40
2017-05-11T03:00:38.949Z,44
2017-05-11T03:01:38.920Z,48
2017-05-11T03:02:53.552Z,52
2017-05-11T03:03:38.954Z,60
2017-05-11T03:04:53.586Z,64
2017-05-11T03:06:39.009Z,76
2017-05-11T03:07:39.024Z,80
2017-05-11T03:08:39.042Z,92
2017-05-11T03:09:39.071Z,100
2017-05-11T03:10:39.075Z,108
2017-05-11T03:11:39.091Z,124
2017-05-11T03:12:39.110Z,136
2017-05-11T03:13:39.131Z,148
2017-05-11T03:14:39.147Z,164
2017-05-11T03:15:39.165Z,184
2017-05-11T03:17:53.813Z,232
2017-05-11T03:18:39.217Z,248
2017-05-11T03:19:39.235Z,276
2017-05-11T03:21:39.273Z,332
2017-05-11T03:22:39.288Z,368
2017-05-11T03:23:39.304Z,404
2017-05-11T03:24:39.321Z,444
2017-05-11T03:25:39.338Z,484
2017-05-11T03:26:39.361Z,528
2017-05-11T03:27:39.376Z,576
2017-05-11T03:28:39.393Z,624
2017-05-11T03:29:39.408Z,676
2017-05-11T03:30:54.044Z,744
2017-05-11T03:32:54.078Z,868
2017-05-11T03:33:39.487Z,916
2017-05-11T03:34:39.494Z,980
2017-05-11T03:35:39.512Z,1040
2017-05-11T03:36:54.151Z,1124
2017-05-11T03:37:39.248Z,1176
2017-05-11T03:38:39.570Z,1252
2017-05-11T03:39:39.581Z,1336
2017-05-11T03:40:39.605Z,1420
2017-05-11T03:41:39.621Z,1508
2017-05-11T03:42:39.642Z,1604
2017-05-11T03:43:39.655Z,1704
2017-05-11T03:44:39.680Z,1796
2017-05-11T03:45:39.697Z,1876
2017-05-11T03:46:39.711Z,1948
2017-05-11T03:47:54.345Z,2020
2017-05-11T03:48:39.741Z,2072
2017-05-11T03:49:39.760Z,2152
2017-05-11T03:50:39.782Z,2244
2017-05-11T03:51:39.810Z,2356
2017-05-11T03:52:54.429Z,2516
2017-05-11T03:53:39.832Z,2616
2017-05-11T03:54:39.854Z,2752
2017-05-11T03:55:39.867Z,2888
2017-05-11T03:56:39.591Z,3000
2017-05-11T03:57:39.905Z,3168
2017-05-11T03:58:39.920Z,3336
2017-05-11T03:59:39.639Z,3416
2017-05-11T04:00:39.960Z,3376
2017-05-11T04:01:54.591Z,3404
2017-05-11T04:02:54.609Z,3504
2017-05-11T04:03:40.009Z,3600
2017-05-11T04:04:54.649Z,3736
2017-05-11T04:06:40.096Z,3984
2017-05-11T04:07:40.084Z,4136
2017-05-11T04:08:54.719Z,4224
2017-05-11T04:09:40.122Z,4480
2017-05-11T04:10:40.140Z,4508
2017-05-11T04:11:40.159Z,4280
2017-05-11T04:12:40.178Z,4368
2017-05-11T04:13:40.194Z,4544
2017-05-11T04:14:40.214Z,4812
2017-05-11T04:15:40.236Z,4800
2017-05-11T04:16:40.255Z,4688
2017-05-11T04:17:54.885Z,4612
2017-05-11T04:18:40.289Z,4604
2017-05-11T04:19:40.307Z,4616
2017-05-11T04:20:40.323Z,4616
2017-05-11T04:21:40.346Z,4568
2017-05-11T04:23:40.380Z,4360
2017-05-11T04:24:54.716Z,4224
2017-05-11T04:25:40.714Z,4164
2017-05-11T04:26:40.437Z,4056
2017-05-11T04:27:40.457Z,4012
2017-05-11T04:28:40.474Z,4016
2017-05-11T04:29:40.491Z,4036
2017-05-11T04:30:40.510Z,4060
2017-05-11T04:31:40.529Z,4088
2017-05-11T04:32:40.246Z,4128
2017-05-11T04:33:40.573Z,4152
2017-05-11T04:34:40.586Z,4144
2017-05-11T04:35:55.522Z,4200
2017-05-11T04:36:40.622Z,4196
2017-05-11T04:37:40.651Z,4184
2017-05-11T04:38:40.662Z,4188
2017-05-11T04:39:55.301Z,4216
2017-05-11T04:40:40.699Z,4244
2017-05-11T04:41:40.718Z,4320
2017-05-11T04:42:40.739Z,4404
2017-05-11T04:43:40.759Z,4516
2017-05-11T04:44:40.773Z,4664
2017-05-11T04:45:40.790Z,4836
2017-05-11T04:46:40.508Z,5048
2017-05-11T04:47:40.834Z,5292
2017-05-11T04:48:55.470Z,5632
2017-05-11T04:49:40.870Z,5880
2017-05-11T04:50:40.886Z,6428
2017-05-11T04:51:55.523Z,6692
2017-05-11T04:52:40.927Z,6784
2017-05-11T04:53:40.948Z,7004
2017-05-11T04:54:40.970Z,7488
2017-05-11T04:55:40.982Z,8228
2017-05-11T04:56:41.005Z,9520
2017-05-11T04:57:41.020Z,10096
2017-05-11T04:58:41.046Z,11136
2017-05-11T04:59:40.756Z,11164
2017-05-11T05:00:40.782Z,9844
2017-05-11T05:01:41.164Z,11952
2017-05-11T05:03:41.140Z,13336
2017-05-11T05:04:41.194Z,14816
2017-05-11T05:05:55.793Z,17728
2017-05-11T05:06:41.200Z,20352
2017-05-11T05:07:55.832Z,20736
2017-05-11T05:08:41.236Z,19648
2017-05-11T05:09:41.257Z,17472
2017-05-11T05:10:41.279Z,17664
2017-05-11T05:11:55.915Z,18080
2017-05-11T05:12:41.327Z,18112
2017-05-11T05:13:41.340Z,18336
2017-05-11T05:14:55.981Z,20128
2017-05-11T05:15:41.381Z,20288
2017-05-11T05:16:41.401Z,20384
2017-05-11T05:17:41.428Z,21056
2017-05-11T05:18:41.448Z,20288
2017-05-11T05:19:41.466Z,21952
2017-05-11T05:20:56.109Z,24480
2017-05-11T05:21:41.510Z,24800
2017-05-11T05:22:56.144Z,25408
2017-05-11T05:23:41.249Z,26048
2017-05-11T05:24:41.277Z,25856
2017-05-11T05:25:56.210Z,25312
2017-05-11T05:26:41.318Z,26240
2017-05-11T05:27:56.257Z,25536
2017-05-11T05:28:41.661Z,25024
2017-05-11T05:29:41.724Z,25984
2017-05-11T05:30:41.705Z,27648
2017-05-11T05:31:41.741Z,28384
2017-05-11T05:32:41.750Z,24384
2017-05-11T05:33:41.776Z,26368
2017-05-11T05:34:41.797Z,25248
2017-05-11T05:35:41.818Z,23456
2017-05-11T05:36:56.458Z,21152
2017-05-11T05:37:41.871Z,19520
2017-05-11T05:38:41.888Z,21856
2017-05-11T05:39:41.919Z,21248
2017-05-11T05:40:41.973Z,21760
2017-05-11T05:41:41.956Z,23392
2017-05-11T05:42:41.979Z,25248
2017-05-11T05:43:56.623Z,27104
2017-05-11T05:44:42.030Z,26176
2017-05-11T05:45:42.049Z,24992
2017-05-11T05:46:42.072Z,27232
2017-05-11T05:47:42.100Z,25280
2017-05-11T05:48:41.815Z,24224
2017-05-11T05:49:42.142Z,22976
2017-05-11T05:50:42.171Z,24832
2017-05-11T05:51:42.188Z,25888
2017-05-11T05:52:42.216Z,26176
2017-05-11T05:53:42.242Z,25344
2017-05-11T05:54:42.262Z,27328
2017-05-11T05:55:41.981Z,26880
2017-05-11T05:56:56.925Z,28928
2017-05-11T05:58:42.049Z,32320
2017-05-11T05:59:57.000Z,35744
2017-05-11T06:00:42.402Z,38752
2017-05-11T06:01:42.427Z,37664
2017-05-11T06:02:42.453Z,40416
2017-05-11T06:03:42.523Z,41440
2017-05-11T06:04:42.497Z,42016
2017-05-11T06:05:42.523Z,44640
2017-05-11T06:06:57.167Z,43264
2017-05-11T06:07:42.577Z,43936
2017-05-11T06:08:57.213Z,42688
2017-05-11T06:09:42.024Z,42176
2017-05-11T06:10:42.645Z,43872
2017-05-11T06:11:57.291Z,44384
2017-05-11T06:12:42.699Z,44128
2017-05-11T06:13:42.725Z,45120
2017-05-11T06:14:57.062Z,44096
2017-05-11T06:16:42.804Z,44992
2017-05-11T06:17:42.826Z,49664
2017-05-11T06:18:42.854Z,52320
2017-05-11T06:19:42.573Z,48864
2017-05-11T06:20:42.900Z,51136
2017-05-11T06:21:57.545Z,61792
2017-05-11T06:22:42.956Z,61472
2017-05-11T06:23:42.979Z,64896
2017-05-11T06:24:43.009Z,67552
2017-05-11T06:25:42.734Z,66240
2017-05-11T06:26:57.675Z,70880
2017-05-11T06:27:57.704Z,72768
2017-05-11T06:28:43.112Z,74016
2017-05-11T06:29:43.141Z,74560
2017-05-11T06:31:43.198Z,78336
2017-05-11T06:32:43.224Z,75712
2017-05-11T06:33:43.258Z,73280
2017-05-11T06:34:43.283Z,72256
2017-05-11T06:35:43.310Z,68128
2017-05-11T06:36:57.958Z,71200
2017-05-11T06:37:57.988Z,71776
2017-05-11T06:38:43.398Z,69600
2017-05-11T06:39:43.431Z,68608
2017-05-11T06:40:43.463Z,71040
2017-05-11T06:41:43.487Z,73152
2017-05-11T06:42:43.519Z,73472
2017-05-11T06:43:58.168Z,71840
2017-05-11T06:44:43.580Z,72992
2017-05-11T06:45:43.609Z,72000
2017-05-11T06:46:58.263Z,68064
2017-05-11T06:47:43.677Z,56224
2017-05-11T06:48:43.708Z,68832
2017-05-11T06:49:43.735Z,67008
2017-05-11T06:50:43.768Z,68480
2017-05-11T06:51:43.801Z,70208
2017-05-11T06:52:43.530Z,71296
2017-05-11T06:53:43.869Z,72736
2017-05-11T06:54:58.515Z,73472
2017-05-11T06:56:43.962Z,70368
2017-05-11T06:57:43.995Z,72192
2017-05-11T06:58:44.029Z,72832
2017-05-11T06:59:44.058Z,69792
2017-05-11T07:00:44.099Z,66976
2017-05-11T07:01:44.122Z,68352
2017-05-11T07:02:58.794Z,69632
2017-05-11T07:03:44.198Z,66656
2017-05-11T07:04:44.224Z,64288
2017-05-11T07:05:44.261Z,64000
2017-05-11T07:06:44.298Z,65568
2017-05-11T07:07:44.330Z,62496
2017-05-11T07:08:44.364Z,62944
2017-05-11T07:09:44.396Z,63520
2017-05-11T07:10:44.158Z,64256
2017-05-11T07:11:44.459Z,64768
2017-05-11T07:12:59.117Z,65664
2017-05-11T07:13:44.535Z,64960
2017-05-11T07:14:44.571Z,64032
2017-05-11T07:15:44.597Z,62144
2017-05-11T07:16:44.633Z,63616
2017-05-11T07:17:44.668Z,63648
2017-05-11T07:18:59.320Z,64800
2017-05-11T07:19:44.429Z,63424
2017-05-11T07:20:44.769Z,63040
2017-05-11T07:22:44.848Z,60768
2017-05-11T07:23:44.871Z,64576
2017-05-11T07:24:44.904Z,58336
2017-05-11T07:25:44.942Z,59008
2017-05-11T07:26:44.983Z,57120
2017-05-11T07:27:45.008Z,60608
2017-05-11T07:29:45.075Z,59360
2017-05-11T07:30:45.105Z,56928
2017-05-11T07:31:45.144Z,54624
2017-05-11T07:32:45.186Z,56032
2017-05-11T07:33:45.208Z,58880
2017-05-11T07:34:59.558Z,61088
2017-05-11T07:35:45.276Z,58816
2017-05-11T07:36:45.308Z,58304
2017-05-11T07:37:45.345Z,59200
2017-05-11T07:38:45.373Z,55904
2017-05-11T07:39:45.409Z,49888
2017-05-11T07:40:45.440Z,45696
2017-05-11T07:41:45.475Z,46176
2017-05-11T07:42:45.517Z,50112
2017-05-11T07:43:45.547Z,50752
2017-05-11T07:44:45.577Z,53184
2017-05-11T07:45:45.609Z,52896
2017-05-11T07:47:00.262Z,50784
2017-05-11T07:47:45.680Z,50976
2017-05-11T07:48:45.711Z,52384
2017-05-11T07:50:00.061Z,51040
2017-05-11T07:50:45.778Z,52864
2017-05-11T07:51:45.852Z,55232
2017-05-11T07:52:45.848Z,54944
2017-05-11T07:53:45.877Z,54048
2017-05-11T07:54:45.912Z,53280
2017-05-11T07:55:45.943Z,55392
2017-05-11T07:56:45.974Z,54624
2017-05-11T07:58:00.627Z,53792
2017-05-11T07:59:00.659Z,53184
2017-05-11T07:59:46.075Z,49984
2017-05-11T08:00:46.126Z,18720
2017-05-11T08:01:46.140Z,36480
2017-05-11T08:02:45.866Z,50880
2017-05-11T08:03:45.903Z,49728
2017-05-11T08:04:46.241Z,50848
2017-05-11T08:05:45.969Z,50144
2017-05-11T08:06:46.312Z,49248
2017-05-11T08:07:46.036Z,50336
2017-05-11T08:08:46.680Z,51744
2017-05-11T08:09:46.098Z,49920
2017-05-11T08:11:01.056Z,48416
2017-05-11T08:11:46.471Z,50048
2017-05-11T08:13:01.118Z,50496
2017-05-11T08:13:46.543Z,49120
2017-05-11T08:14:46.567Z,40640
2017-05-11T08:16:01.219Z,25984
2017-05-11T08:16:46.327Z,23808
2017-05-11T08:17:46.676Z,23648
2017-05-11T08:18:46.750Z,23040
2017-05-11T08:19:46.732Z,22848
2017-05-11T08:20:46.761Z,22624
2017-05-11T08:22:01.414Z,22208
2017-05-11T08:22:46.828Z,21664
2017-05-11T08:23:46.862Z,21888
2017-05-11T08:24:46.891Z,21952
2017-05-11T08:25:46.930Z,22048
2017-05-11T08:26:46.963Z,21888
2017-05-11T08:27:46.994Z,21824
2017-05-11T08:28:47.029Z,21696
2017-05-11T08:29:47.064Z,21632
2017-05-11T08:30:47.093Z,21120
2017-05-11T08:31:47.125Z,21376
2017-05-11T08:32:46.854Z,21376
2017-05-11T08:34:01.509Z,21632
2017-05-11T08:34:47.220Z,21472
2017-05-11T08:35:47.261Z,21568
2017-05-11T08:36:47.298Z,21344
2017-05-11T08:38:01.944Z,21504
2017-05-11T08:38:47.363Z,21376
2017-05-11T08:39:47.391Z,21120
2017-05-11T08:40:47.428Z,21024
2017-05-11T08:41:47.462Z,20896
2017-05-11T08:43:02.113Z,21056
2017-05-11T08:43:47.529Z,20928
2017-05-11T08:44:47.561Z,21120
2017-05-11T08:45:47.592Z,21344
2017-05-11T08:46:47.626Z,21184
2017-05-11T08:48:02.275Z,21184
2017-05-11T08:48:47.690Z,21248
2017-05-11T08:50:02.355Z,21088
2017-05-11T08:50:47.762Z,20928
2017-05-11T08:51:47.793Z,20544
2017-05-11T08:52:47.821Z,20224
2017-05-11T08:54:02.477Z,20000
2017-05-11T08:54:47.890Z,19776
2017-05-11T08:55:47.925Z,19392
2017-05-11T08:56:47.959Z,19136
2017-05-11T08:57:48.037Z,18752
2017-05-11T08:58:48.026Z,18816
2017-05-11T08:59:48.076Z,18368
2017-05-11T09:00:48.092Z,17760
2017-05-11T09:01:47.829Z,18048
2017-05-11T09:03:02.776Z,17920
2017-05-11T09:03:48.194Z,17792
2017-05-11T09:04:48.226Z,17792
2017-05-11T09:06:48.290Z,18496
2017-05-11T09:07:48.320Z,18400
2017-05-11T09:10:02.704Z,18400
2017-05-11T09:10:48.419Z,18144
2017-05-11T09:11:48.469Z,18080
2017-05-11T09:12:48.485Z,17952
2017-05-11T09:13:48.519Z,17824
2017-05-11T09:14:48.554Z,17600
2017-05-11T09:15:48.583Z,17664
2017-05-11T09:17:03.237Z,17064
2017-05-11T09:17:48.649Z,16884
2017-05-11T09:19:03.301Z,16492
2017-05-11T09:19:48.720Z,16748
2017-05-11T09:21:03.366Z,16772
2017-05-11T09:21:48.780Z,16612
2017-05-11T09:22:48.820Z,16516
2017-05-11T09:23:48.849Z,16404
2017-05-11T09:25:03.195Z,16352
2017-05-11T09:25:48.614Z,16292
2017-05-11T09:26:48.951Z,16092
2017-05-11T09:27:48.674Z,15268
2017-05-11T09:29:49.050Z,15844
2017-05-11T09:30:49.076Z,15868
2017-05-11T09:31:49.110Z,15768
2017-05-11T09:33:03.754Z,15776
2017-05-11T09:34:03.789Z,15660
2017-05-11T09:34:49.199Z,15660
2017-05-11T09:36:03.854Z,15528
2017-05-11T09:36:49.263Z,14820
2017-05-11T09:38:03.916Z,15268
2017-05-11T09:38:49.326Z,15228
2017-05-11T09:39:49.360Z,15164
2017-05-11T09:40:49.392Z,14828
2017-05-11T09:41:49.425Z,14808
2017-05-11T09:42:49.453Z,14796
2017-05-11T09:43:49.183Z,14728
2017-05-11T09:44:49.515Z,14680
2017-05-11T09:45:49.547Z,14608
2017-05-11T09:47:04.200Z,14652
2017-05-11T09:47:49.610Z,14588
2017-05-11T09:48:49.685Z,14540
2017-05-11T09:50:04.295Z,14340
2017-05-11T09:51:49.734Z,14348
2017-05-11T09:52:49.461Z,14152
2017-05-11T09:53:49.794Z,14060
2017-05-11T09:54:49.827Z,14036
2017-05-11T09:55:49.864Z,14136
2017-05-11T09:57:04.510Z,14096
2017-05-11T09:57:49.925Z,14076
2017-05-11T09:58:49.953Z,14004
2017-05-11T10:00:04.607Z,13956
2017-05-11T10:00:50.015Z,13940
2017-05-11T10:01:50.042Z,13916
2017-05-11T10:03:04.696Z,13908
2017-05-11T10:04:04.728Z,13868
2017-05-11T10:05:04.756Z,13800
2017-05-11T10:05:50.169Z,13792
2017-05-11T10:07:04.818Z,13780
2017-05-11T10:07:50.230Z,13672
2017-05-11T10:08:50.260Z,13556
2017-05-11T10:11:50.356Z,13428
2017-05-11T10:13:05.004Z,13416
2017-05-11T10:13:50.413Z,13408
2017-05-11T10:14:50.443Z,13292
2017-05-11T10:15:50.477Z,13016
2017-05-11T10:16:50.502Z,13204
2017-05-11T10:17:50.538Z,13196
2017-05-11T10:18:50.571Z,13160
2017-05-11T10:19:50.296Z,13164
2017-05-11T10:20:50.322Z,13112
2017-05-11T10:22:05.277Z,13120
2017-05-11T10:23:05.305Z,12912
2017-05-11T10:23:50.722Z,12628
2017-05-11T10:24:50.751Z,12280
2017-05-11T10:25:50.780Z,11832
2017-05-11T10:26:50.811Z,12200
2017-05-11T10:27:50.845Z,11924
2017-05-11T10:29:05.486Z,11652
2017-05-11T10:29:50.899Z,11424
2017-05-11T10:30:50.931Z,12028
2017-05-11T10:31:50.959Z,12184
2017-05-11T10:32:50.992Z,12232
2017-05-11T10:33:51.017Z,12080
2017-05-11T10:34:51.048Z,12024
2017-05-11T10:35:51.080Z,11992
2017-05-11T10:36:51.106Z,12032
2017-05-11T10:37:51.146Z,11928
2017-05-11T10:38:50.861Z,11928
2017-05-11T10:39:51.196Z,11912
2017-05-11T10:40:51.226Z,11880
2017-05-11T10:41:51.289Z,11804
2017-05-11T10:42:51.281Z,11724
2017-05-11T10:43:51.318Z,11616
2017-05-11T10:45:05.654Z,11516
2017-05-11T10:45:51.371Z,11460
2017-05-11T10:46:51.399Z,11468
2017-05-11T10:47:51.430Z,11432
2017-05-11T10:48:51.457Z,11348
2017-05-11T10:49:51.487Z,11156
2017-05-11T10:50:51.515Z,11192
2017-05-11T10:51:51.548Z,11148
2017-05-11T10:54:05.914Z,10992
2017-05-11T10:54:51.328Z,10872
2017-05-11T10:55:51.353Z,10824
2017-05-11T10:57:06.003Z,10752
2017-05-11T10:58:06.334Z,10624
2017-05-11T10:58:51.743Z,10712
2017-05-11T11:00:06.393Z,10660
2017-05-11T11:00:51.801Z,10600
2017-05-11T11:01:51.828Z,10444
2017-05-11T11:02:51.857Z,10324
2017-05-11T11:03:51.582Z,10128
2017-05-11T11:04:51.913Z,9928
2017-05-11T11:05:51.941Z,9732
2017-05-11T11:06:51.973Z,9448
2017-05-11T11:07:52.002Z,9312
2017-05-11T11:08:52.027Z,9168
2017-05-11T11:09:52.053Z,9020
2017-05-11T11:11:06.701Z,8792
2017-05-11T11:11:52.114Z,8688
2017-05-11T11:12:52.140Z,8612
2017-05-11T11:13:52.165Z,8456
2017-05-11T11:14:52.197Z,8340
2017-05-11T11:15:52.224Z,8260
2017-05-11T11:16:52.261Z,8136
2017-05-11T11:17:52.279Z,8012
2017-05-11T11:18:52.303Z,7908
2017-05-11T11:19:52.028Z,7768
2017-05-11T11:20:52.365Z,7652
2017-05-11T11:21:52.387Z,7544
2017-05-11T11:22:52.415Z,7428
2017-05-11T11:24:07.060Z,7312
2017-05-11T11:25:07.086Z,7188
2017-05-11T11:26:07.112Z,7108
2017-05-11T11:26:52.525Z,7060
2017-05-11T11:27:52.247Z,6996
2017-05-11T11:29:07.197Z,6912
2017-05-11T11:29:52.302Z,6832
2017-05-11T11:30:52.630Z,6792
2017-05-11T11:32:07.279Z,6692
2017-05-11T11:32:52.691Z,6620
2017-05-11T11:33:52.715Z,6592
2017-05-11T11:34:52.742Z,6536
2017-05-11T11:35:52.771Z,6488
2017-05-11T11:36:52.794Z,6436
2017-05-11T11:37:52.824Z,6408
2017-05-11T11:38:52.544Z,6372
2017-05-11T11:39:52.889Z,6360
2017-05-11T11:40:52.939Z,6360
2017-05-11T11:42:07.546Z,6336
2017-05-11T11:42:52.958Z,6304
2017-05-11T11:44:53.009Z,6244
2017-05-11T11:46:53.062Z,6268
2017-05-11T11:48:53.123Z,6264
2017-05-11T11:49:53.148Z,6256
2017-05-11T11:51:07.794Z,6268
2017-05-11T11:52:53.227Z,6264
2017-05-11T11:53:52.647Z,6256
2017-05-11T11:54:53.283Z,6248
2017-05-11T11:55:53.308Z,6224
2017-05-11T11:56:53.335Z,6228
2017-05-11T11:58:07.676Z,6208
2017-05-11T11:59:08.010Z,6200
2017-05-11T11:59:53.436Z,6152
2017-05-11T12:01:53.166Z,6132
2017-05-11T12:02:53.498Z,6132
2017-05-11T12:04:08.138Z,6100
2017-05-11T12:04:53.556Z,6092
2017-05-11T12:05:53.580Z,6064
2017-05-11T12:06:53.605Z,6032
2017-05-11T12:07:53.628Z,6012
2017-05-11T12:08:53.658Z,5992
2017-05-11T12:11:08.328Z,5976
2017-05-11T12:11:53.734Z,5972
2017-05-11T12:12:53.762Z,5964
2017-05-11T12:13:53.790Z,5972
2017-05-11T12:14:53.818Z,5972
2017-05-11T12:16:08.460Z,5996
2017-05-11T12:16:53.869Z,6008
2017-05-11T12:17:53.896Z,6004
2017-05-11T12:18:53.924Z,6024
2017-05-11T12:20:08.570Z,6020
2017-05-11T12:20:53.983Z,6004
2017-05-11T12:21:54.010Z,5944
2017-05-11T12:22:54.032Z,5860
2017-05-11T12:23:54.055Z,5964
2017-05-11T12:24:54.087Z,6024
2017-05-11T12:25:54.113Z,6040
2017-05-11T12:27:08.758Z,6076
2017-05-11T12:27:54.167Z,6072
2017-05-11T12:28:54.199Z,6068
2017-05-11T12:29:53.912Z,6100
2017-05-11T12:30:54.244Z,6160
2017-05-11T12:32:08.890Z,6240
2017-05-11T12:33:08.919Z,6220
2017-05-11T12:35:08.970Z,6084
2017-05-11T12:36:54.405Z,6024
2017-05-11T12:37:54.433Z,5976
2017-05-11T12:38:54.468Z,5972
2017-05-11T12:39:54.489Z,5944
2017-05-11T12:40:54.212Z,5988
2017-05-11T12:41:54.542Z,6044
2017-05-11T12:43:09.185Z,6060
2017-05-11T12:43:54.597Z,6120
2017-05-11T12:44:54.622Z,6176
2017-05-11T12:47:09.303Z,6124
2017-05-11T12:50:54.780Z,6080
2017-05-11T12:51:54.803Z,6060
2017-05-11T12:52:54.840Z,6112
2017-05-11T12:53:54.899Z,6088
2017-05-11T12:54:54.885Z,6148
2017-05-11T12:55:54.911Z,3828
2017-05-11T12:56:54.944Z,5416
2017-05-11T12:57:54.969Z,6120
2017-05-11T12:58:54.992Z,6156
2017-05-11T12:59:55.024Z,6152
2017-05-11T13:00:55.045Z,6016
2017-05-11T13:01:55.071Z,5940
2017-05-11T13:02:55.096Z,6048
2017-05-11T13:03:55.139Z,6104
2017-05-11T13:05:55.175Z,6184
2017-05-11T13:07:09.825Z,6280
2017-05-11T13:07:54.938Z,6276
2017-05-11T13:08:55.265Z,6240
2017-05-11T13:09:55.288Z,6264
2017-05-11T13:10:55.316Z,6328
2017-05-11T13:11:55.347Z,6380
2017-05-11T13:12:55.376Z,6460
2017-05-11T13:13:55.393Z,6500
2017-05-11T13:14:55.432Z,6456
2017-05-11T13:15:55.456Z,6392
2017-05-11T13:16:55.478Z,6456
2017-05-11T13:17:55.496Z,6424
2017-05-11T13:19:55.559Z,6308
2017-05-11T13:21:55.608Z,6324
2017-05-11T13:23:09.946Z,6248
2017-05-11T13:23:55.660Z,6272
2017-05-11T13:24:55.694Z,6316
2017-05-11T13:25:55.712Z,6348
2017-05-11T13:26:55.433Z,6380
2017-05-11T13:27:55.767Z,6328
2017-05-11T13:28:55.791Z,6272
2017-05-11T13:30:10.436Z,6212
2017-05-11T13:30:55.846Z,6152
2017-05-11T13:31:55.872Z,6156
2017-05-11T13:33:10.514Z,6136
2017-05-11T13:33:55.928Z,6076
2017-05-11T13:35:55.981Z,6096
2017-05-11T13:36:56.004Z,6036
2017-05-11T13:39:10.374Z,6100
2017-05-11T13:39:56.085Z,6112
2017-05-11T13:40:55.809Z,6092
2017-05-11T13:41:56.139Z,6000
2017-05-11T13:42:56.167Z,6040
2017-05-11T13:43:55.891Z,6076
2017-05-11T13:44:56.219Z,5980
2017-05-11T13:45:56.249Z,5916
2017-05-11T13:46:56.274Z,5000
2017-05-11T13:47:56.300Z,5880
2017-05-11T13:48:55.734Z,6024
2017-05-11T13:49:56.048Z,5548
2017-05-11T13:50:56.379Z,5556
2017-05-11T13:52:56.435Z,6204
2017-05-11T13:53:56.461Z,6460
2017-05-11T13:55:11.109Z,6540
2017-05-11T13:55:56.515Z,6460
2017-05-11T13:56:56.544Z,6352
2017-05-11T13:57:56.567Z,6248
2017-05-11T13:58:56.599Z,6260
2017-05-11T13:59:56.619Z,6236
2017-05-11T14:00:56.644Z,6220
2017-05-11T14:01:56.675Z,6212
2017-05-11T14:02:56.702Z,6212
2017-05-11T14:03:56.726Z,6208
2017-05-11T14:07:11.424Z,6156
2017-05-11T14:07:56.835Z,6164
2017-05-11T14:08:56.864Z,6144
2017-05-11T14:10:10.899Z,6004
2017-05-11T14:10:56.920Z,5992
2017-05-11T14:11:56.938Z,6020
2017-05-11T14:12:56.965Z,6052
2017-05-11T14:13:56.689Z,6076
2017-05-11T14:14:57.026Z,6060
2017-05-11T14:15:57.047Z,6064
2017-05-11T14:17:11.692Z,6048
2017-05-11T14:17:57.110Z,6032
2017-05-11T14:18:57.131Z,6056
2017-05-11T14:19:57.156Z,6080